Time;durP1;ratioP1;P1;durP2;ratioP2;P2;SDS_P1;SDS_P2;PMS_P1;PMS_P2;Temp;Humidity;BMP_temperature;BMP_pressure;BME280_temperature;BME280_humidity;BME280_pressure;Samples;Min_cycle;Max_cycle;Signal;HPM_P1;HPM_P2
2022/02/06 00:00:37;;;;;;;47.45;33.08;;;;;;;3.40;100.00;100619.34;5030346;28;20065;-70
2022/02/06 00:03:03;;;;;;;46.72;33.80;;;;;;;3.25;100.00;100609.09;5030379;28;20081;-70
2022/02/06 00:05:29;;;;;;;45.35;33.65;;;;;;;3.10;100.00;100609.78;5030589;28;20056;-69
2022/02/06 00:07:56;;;;;;;48.58;31.45;;;;;;;3.24;100.00;100617.47;5030525;28;20025;-69
2022/02/06 00:10:21;;;;;;;45.10;29.80;;;;;;;3.26;100.00;100595.75;5030153;28;20069;-70
2022/02/06 00:12:46;;;;;;;47.10;32.10;;;;;;;3.19;100.00;100629.97;5030623;28;20102;-69
2022/02/06 00:15:12;;;;;;;39.97;29.02;;;;;;;3.19;100.00;100612.41;5031850;28;20480;-70
2022/02/06 00:17:38;;;;;;;43.30;28.50;;;;;;;3.07;100.00;100593.84;5031391;28;20037;-69
2022/02/06 00:20:05;;;;;;;41.38;27.30;;;;;;;3.28;100.00;100591.56;5031550;28;20030;-70
2022/02/06 00:22:42;;;;;;;44.08;28.08;;;;;;;3.36;100.00;100646.13;5031611;28;20084;-69
2022/02/06 00:27:46;;;;;;;36.28;26.63;;;;;;;3.63;100.00;100615.41;5031104;28;20060;-69
2022/02/06 00:31:08;;;;;;;30.58;19.27;;;;;;;4.83;100.00;100624.75;5030047;28;20036;-69
2022/02/06 00:33:09;;;;;;;20.35;13.95;;;;;;;5.92;100.00;100631.03;5020475;28;20044;-70
2022/02/06 00:43:25;;;;;;;36.08;24.52;;;;;;;4.07;100.00;100654.41;5031342;28;20030;-70
2022/02/06 00:45:51;;;;;;;33.25;23.83;;;;;;;4.16;100.00;100648.63;5029555;28;20037;-69
2022/02/06 00:48:23;;;;;;;39.08;25.48;;;;;;;4.12;100.00;100642.69;5029561;28;20095;-70
2022/02/06 00:50:58;;;;;;;45.65;29.08;;;;;;;4.10;100.00;100635.97;5030810;28;20538;-69
2022/02/06 00:53:23;;;;;;;32.85;23.40;;;;;;;4.23;100.00;100610.06;5029807;28;20039;-70
2022/02/06 00:55:49;;;;;;;38.85;25.92;;;;;;;4.24;100.00;100652.84;5031031;28;20197;-70
2022/02/06 00:58:14;;;;;;;51.85;32.38;;;;;;;4.26;100.00;100666.28;5029283;28;20034;-69
2022/02/06 01:03:16;;;;;;;38.45;23.67;;;;;;;4.18;100.00;100630.16;4124018;22;10000734;-67
2022/02/06 01:05:41;;;;;;;38.10;24.45;;;;;;;4.38;100.00;100671.44;4976801;28;20050;-67
2022/02/06 01:08:08;;;;;;;32.20;22.33;;;;;;;4.54;100.00;100677.41;5010606;28;20504;-66
2022/02/06 01:10:33;;;;;;;27.20;19.17;;;;;;;5.05;100.00;100681.97;5011070;28;20038;-67
2022/02/06 01:13:12;;;;;;;24.05;17.25;;;;;;;4.91;100.00;100665.94;4993115;28;20053;-66
2022/02/06 01:15:38;;;;;;;28.33;19.88;;;;;;;4.06;100.00;100631.75;5014394;28;20030;-67
2022/02/06 01:18:07;;;;;;;25.77;18.20;;;;;;;4.84;100.00;100652.44;4997267;28;20030;-66
2022/02/06 01:20:38;;;;;;;18.17;13.60;;;;;;;5.33;100.00;100656.03;5014691;28;20455;-66
2022/02/06 01:23:09;;;;;;;21.88;14.40;;;;;;;5.27;100.00;100664.44;4997133;28;20026;-67
2022/02/06 01:25:50;;;;;;;23.58;17.30;;;;;;;5.10;100.00;100671.09;4996719;28;20030;-67
2022/02/06 01:28:20;;;;;;;29.42;18.58;;;;;;;5.33;100.00;100648.50;4997090;28;20026;-67
2022/02/06 01:33:17;;;;;;;26.05;16.00;;;;;;;5.39;100.00;100648.50;5013328;28;20030;-66
2022/02/06 01:36:01;;;;;;;25.83;15.27;;;;;;;4.88;100.00;100625.59;5014536;28;20042;-67
2022/02/06 01:38:59;;;;;;;24.73;15.30;;;;;;;4.98;100.00;100608.03;4995940;28;20036;-66
2022/02/06 01:41:21;;;;;;;33.42;19.38;;;;;;;5.40;100.00;100647.69;5012605;28;20101;-67
2022/02/06 01:43:56;;;;;;;18.13;11.77;;;;;;;5.47;100.00;100608.22;4996854;28;20121;-67
2022/02/06 01:46:41;;;;;;;19.25;11.93;;;;;;;5.65;100.00;100625.91;5014441;28;20121;-67
2022/02/06 02:11:03;;;;;;;10.02;6.60;;;;;;;6.38;100.00;100629.38;5014267;28;20044;-67
2022/02/06 02:47:17;;;;;;;6.20;4.53;;;;;;;7.03;100.00;100727.81;5013335;28;20038;-68
2022/02/06 02:50:09;;;;;;;7.43;5.05;;;;;;;7.18;100.00;100730.31;4995619;28;20034;-67
2022/02/06 02:52:55;;;;;;;8.70;6.45;;;;;;;7.15;100.00;100688.16;5012511;28;20507;-67
2022/02/06 02:55:35;;;;;;;10.35;7.40;;;;;;;6.87;100.00;100684.88;5013109;28;20080;-67
2022/02/06 03:00:47;;;;;;;10.80;7.90;;;;;;;6.98;100.00;100687.38;5013118;28;20463;-67
2022/02/06 03:03:16;;;;;;;8.35;6.72;;;;;;;6.70;100.00;100695.84;5012922;28;20049;-67
2022/02/06 03:05:42;;;;;;;10.73;6.88;;;;;;;6.52;100.00;100665.53;4995116;28;20472;-68
2022/02/06 03:08:09;;;;;;;9.95;7.35;;;;;;;7.06;100.00;100725.28;5012945;28;20032;-67
2022/02/06 03:10:36;;;;;;;8.70;6.82;;;;;;;7.28;100.00;100731.97;5012922;28;20480;-66
2022/02/06 03:13:06;;;;;;;9.70;7.07;;;;;;;7.03;100.00;100748.03;4995375;28;20029;-67
2022/02/06 03:18:02;;;;;;;8.60;6.28;;;;;;;7.10;100.00;100742.97;5012869;28;20030;-67
2022/02/06 03:20:28;;;;;;;9.68;7.13;;;;;;;6.87;100.00;100709.31;5012760;28;20026;-68
2022/02/06 03:22:55;;;;;;;9.68;6.57;;;;;;;7.07;100.00;100749.72;5012723;28;20026;-67
2022/02/06 03:25:22;;;;;;;10.05;6.97;;;;;;;7.07;100.00;100765.75;4994884;28;20034;-67
2022/02/06 03:27:49;;;;;;;9.55;6.70;;;;;;;7.03;100.00;100768.28;5012527;28;20037;-67
2022/02/06 03:30:16;;;;;;;8.82;6.30;;;;;;;7.37;100.00;100757.25;5012627;28;20030;-67
2022/02/06 03:32:41;;;;;;;8.63;6.65;;;;;;;7.38;100.00;100762.31;5012376;28;20025;-67
2022/02/06 03:35:07;;;;;;;10.63;7.18;;;;;;;7.17;100.00;100738.75;4994739;28;20030;-67
2022/02/06 03:37:33;;;;;;;9.98;6.78;;;;;;;7.03;100.00;100751.44;4994246;28;20025;-67
2022/02/06 03:40:01;;;;;;;9.45;6.68;;;;;;;7.07;100.00;100763.22;4995015;28;20040;-67
2022/02/06 03:42:35;;;;;;;10.57;7.03;;;;;;;7.21;100.00;100758.13;4994531;28;20068;-67
2022/02/06 03:45:06;;;;;;;11.32;6.80;;;;;;;7.41;100.00;100771.56;5012223;28;20409;-67
2022/02/06 03:50:34;;;;;;;10.15;6.38;;;;;;;7.51;100.00;100760.56;4951329;29;20141;-67
2022/02/06 03:52:59;;;;;;;9.60;6.20;;;;;;;7.88;100.00;100754.53;4999739;28;20132;-68
2022/02/06 03:55:24;;;;;;;10.40;6.05;;;;;;;7.52;100.00;100768.19;4994213;28;20116;-67
2022/02/06 03:57:51;;;;;;;9.98;6.30;;;;;;;7.70;100.00;100765.59;5011688;28;20029;-67
2022/02/06 04:00:20;;;;;;;8.27;5.88;;;;;;;7.44;100.00;100764.81;4994400;28;20034;-68
2022/02/06 04:02:46;;;;;;;9.63;6.25;;;;;;;7.22;100.00;100734.53;4994274;28;20050;-67
2022/02/06 04:05:14;;;;;;;9.82;6.10;;;;;;;7.56;100.00;100766.47;4994052;28;20115;-67
2022/02/06 04:07:41;;;;;;;11.88;6.13;;;;;;;7.27;100.00;100741.25;5011310;28;20026;-66
2022/02/06 04:10:09;;;;;;;12.40;7.05;;;;;;;7.72;100.00;100776.53;5011447;28;20033;-67
2022/02/06 04:12:37;;;;;;;13.05;7.53;;;;;;;7.38;100.00;100743.75;4993881;28;20026;-67
2022/02/06 04:15:07;;;;;;;10.90;7.00;;;;;;;7.03;100.00;100757.31;5011921;28;20048;-66
2022/02/06 04:17:43;;;;;;;10.95;6.82;;;;;;;7.24;100.00;100806.16;5011826;28;20484;-66
2022/02/06 04:20:09;;;;;;;8.68;6.15;;;;;;;7.14;100.00;100754.75;5011416;28;20071;-67
2022/02/06 04:22:34;;;;;;;10.20;5.80;;;;;;;7.49;100.00;100808.63;5010742;28;20116;-67
2022/02/06 04:25:00;;;;;;;8.10;5.82;;;;;;;7.13;100.00;100767.41;5012544;28;20041;-66
2022/02/06 04:27:26;;;;;;;8.68;6.00;;;;;;;7.33;100.00;100770.75;4994119;28;20033;-68
2022/02/06 04:29:52;;;;;;;11.48;7.45;;;;;;;7.41;100.00;100822.13;5011021;28;20028;-68
2022/02/06 04:32:19;;;;;;;12.40;7.68;;;;;;;7.42;100.00;100801.06;4993459;28;20284;-68
2022/02/06 04:34:44;;;;;;;10.13;6.60;;;;;;;7.27;100.00;100817.09;5011128;28;20025;-67
2022/02/06 04:37:22;;;;;;;9.95;6.30;;;;;;;6.86;100.00;100783.44;4993040;28;20037;-66
2022/02/06 04:43:27;;;;;;;10.55;6.72;;;;;;;7.14;100.00;100834.81;4969302;28;20093;-67
2022/02/06 05:28:26;;;;;;;9.38;4.55;;;;;;;6.33;100.00;100810.31;5010983;28;20065;-68
2022/02/06 05:31:01;;;;;;;9.95;5.20;;;;;;;6.57;100.00;100846.56;5010494;28;20026;-68
2022/02/06 05:33:26;;;;;;;20.77;8.25;;;;;;;7.28;100.00;100801.09;4992975;28;20034;-66
2022/02/06 05:35:52;;;;;;;9.73;6.30;;;;;;;6.92;100.00;100846.63;4992154;28;20152;-68
2022/02/06 05:38:17;;;;;;;8.25;5.15;;;;;;;6.82;100.00;100844.91;5010616;28;20034;-66
2022/02/06 05:40:43;;;;;;;8.88;4.20;;;;;;;6.99;100.00;100845.78;5010066;28;20175;-66
2022/02/06 05:43:08;;;;;;;7.13;3.70;;;;;;;6.95;100.00;100812.06;4992624;28;20397;-66
2022/02/06 05:45:34;;;;;;;9.18;3.72;;;;;;;7.01;100.00;100857.56;5010926;28;20033;-66
2022/02/06 05:47:59;;;;;;;8.05;3.65;;;;;;;6.59;100.00;100808.69;5010897;28;20070;-66
2022/02/06 05:50:25;;;;;;;5.75;3.35;;;;;;;7.07;98.91;100860.97;4991621;28;20045;-65
2022/02/06 05:52:51;;;;;;;11.68;4.15;;;;;;;7.50;100.00;100867.69;5010514;28;20030;-67
2022/02/06 05:55:17;;;;;;;19.55;8.15;;;;;;;7.22;96.43;100881.16;5010144;28;20026;-67
2022/02/06 05:57:43;;;;;;;11.43;5.95;;;;;;;7.97;90.57;100880.22;4991709;28;20044;-67
2022/02/06 06:00:12;;;;;;;6.07;4.00;;;;;;;9.73;74.87;100842.69;5010237;28;20026;-67
2022/02/06 06:02:38;;;;;;;33.00;15.27;;;;;;;10.68;66.83;100869.50;4995776;28;20407;-68
2022/02/06 06:05:03;;;;;;;11.77;6.20;;;;;;;11.18;64.31;100875.53;5013690;28;20044;-68
2022/02/06 06:07:30;;;;;;;7.47;4.18;;;;;;;10.69;63.05;100882.22;4994841;28;20029;-68
2022/02/06 06:09:55;;;;;;;7.75;4.25;;;;;;;11.72;61.05;100883.13;5013964;28;20485;-67
2022/02/06 06:12:21;;;;;;;8.07;4.28;;;;;;;10.55;63.41;100870.53;4996069;28;20032;-68
2022/02/06 06:14:47;;;;;;;10.60;5.50;;;;;;;10.89;61.94;100813.25;5013799;28;20036;-67
2022/02/06 06:17:14;;;;;;;10.75;6.38;;;;;;;12.31;60.42;100853.91;5013826;28;20036;-67
2022/02/06 06:19:44;;;;;;;6.53;4.20;;;;;;;11.69;58.45;100858.53;4995761;28;20042;-68
2022/02/06 06:22:11;;;;;;;9.60;5.10;;;;;;;11.82;58.63;100888.03;4996432;28;20480;-67
2022/02/06 06:24:43;;;;;;;9.02;5.45;;;;;;;11.13;64.03;100868.84;5013745;28;20037;-67
2022/02/06 06:27:09;;;;;;;17.25;5.50;;;;;;;12.68;58.13;100867.53;5013836;28;20053;-68
2022/02/06 06:29:34;;;;;;;10.57;5.82;;;;;;;12.86;55.56;100911.38;4995924;28;20057;-68
2022/02/06 06:32:00;;;;;;;10.98;6.60;;;;;;;13.30;53.67;100899.31;5013115;28;20054;-68
2022/02/06 06:34:26;;;;;;;11.27;4.90;;;;;;;13.11;53.74;100916.81;5013356;28;20407;-68
2022/02/06 06:36:52;;;;;;;7.07;4.30;;;;;;;13.47;54.26;100877.59;4995944;28;20037;-68
2022/02/06 06:39:23;;;;;;;7.65;4.60;;;;;;;12.23;57.54;100914.41;5013591;28;20408;-68
2022/02/06 06:41:49;;;;;;;7.97;4.85;;;;;;;12.57;56.88;100854.19;5013502;28;20029;-68
2022/02/06 06:44:14;;;;;;;11.52;4.50;;;;;;;12.73;56.42;100843.63;5013511;28;20026;-68
2022/02/06 06:46:40;;;;;;;6.78;4.15;;;;;;;12.58;53.93;100902.63;4995640;28;20030;-68
2022/02/06 06:49:05;;;;;;;8.70;4.38;;;;;;;12.56;53.91;100898.41;4995867;28;20480;-68
2022/02/06 06:51:31;;;;;;;11.85;4.93;;;;;;;13.82;52.92;100866.47;5013215;28;20026;-68
2022/02/06 06:53:56;;;;;;;7.55;4.65;;;;;;;13.47;53.13;100857.16;4995733;28;20030;-68
2022/02/06 06:56:30;;;;;;;7.15;3.83;;;;;;;12.90;53.25;100899.38;5013157;28;20037;-68
2022/02/06 06:58:56;;;;;;;10.27;5.70;;;;;;;13.36;52.58;100894.91;4995244;28;20076;-69
2022/02/06 07:03:50;;;;;;;7.63;4.75;;;;;;;16.49;47.13;100852.63;5013062;28;20049;-67
2022/02/06 07:06:16;;;;;;;8.57;4.70;;;;;;;16.13;46.44;100847.09;5013039;28;20032;-66
2022/02/06 07:08:41;;;;;;;10.70;4.93;;;;;;;14.90;48.51;100900.00;4995340;28;20519;-67
2022/02/06 07:11:07;;;;;;;12.32;6.90;;;;;;;15.55;47.64;100894.47;4995239;28;20034;-69
2022/02/06 07:13:32;;;;;;;18.80;10.73;;;;;;;14.95;47.95;100877.66;5012083;28;20473;-69
2022/02/06 07:15:58;;;;;;;16.15;9.32;;;;;;;14.21;52.15;100913.09;4994856;28;20057;-69
2022/02/06 07:18:23;;;;;;;20.60;12.60;;;;;;;12.06;58.82;100938.53;4995277;28;20555;-69
2022/02/06 07:20:50;;;;;;;17.52;8.60;;;;;;;10.32;69.21;100972.47;5012649;28;20041;-67
2022/02/06 07:23:16;;;;;;;16.75;9.57;;;;;;;10.23;75.76;100925.16;4995043;28;20080;-67
2022/02/06 07:25:45;;;;;;;29.38;19.48;;;;;;;10.55;76.48;100960.38;5012819;28;20488;-67
2022/02/06 07:28:16;;;;;;;14.30;7.80;;;;;;;9.71;82.58;100915.50;5012508;28;20030;-66
2022/02/06 07:30:43;;;;;;;20.97;13.90;;;;;;;11.20;77.01;100904.34;4995001;28;20401;-67
2022/02/06 07:33:10;;;;;;;30.98;18.73;;;;;;;9.58;85.23;100919.88;4994802;28;20483;-67
2022/02/06 07:35:35;;;;;;;15.77;10.73;;;;;;;10.67;85.75;100951.75;5012466;28;20139;-67
2022/02/06 07:38:01;;;;;;;10.13;6.05;;;;;;;10.50;84.26;100908.72;4995125;28;20125;-67
2022/02/06 07:40:26;;;;;;;10.35;7.40;;;;;;;11.10;83.48;100952.84;4994508;28;20419;-67
2022/02/06 07:42:52;;;;;;;13.88;7.28;;;;;;;10.71;82.25;100951.69;4994536;28;20026;-68
2022/02/06 07:45:17;;;;;;;12.40;7.70;;;;;;;9.78;83.90;100965.41;5012498;28;20030;-67
2022/02/06 07:47:45;;;;;;;13.00;8.73;;;;;;;9.47;92.40;100947.03;5012386;28;20030;-67
2022/02/06 07:50:12;;;;;;;13.57;9.10;;;;;;;9.69;100.00;100966.31;4994720;28;20026;-67
2022/02/06 07:52:37;;;;;;;19.30;13.27;;;;;;;9.50;100.00;100942.78;5012329;28;20045;-67
2022/02/06 07:55:06;;;;;;;19.17;13.43;;;;;;;9.45;100.00;100982.56;5012008;28;20030;-67
2022/02/06 07:57:32;;;;;;;24.67;15.05;;;;;;;9.85;100.00;100967.84;4994290;28;20485;-67
2022/02/06 07:59:58;;;;;;;16.23;11.10;;;;;;;9.01;98.06;100945.69;5012090;28;20026;-67
2022/02/06 08:02:23;;;;;;;17.08;11.35;;;;;;;9.96;99.29;100968.63;4994530;28;20536;-68
2022/02/06 08:04:49;;;;;;;24.80;17.40;;;;;;;9.69;100.00;100938.38;4994345;28;20503;-67
2022/02/06 08:07:15;;;;;;;26.77;20.45;;;;;;;9.46;100.00;100975.81;4994127;28;20030;-67
2022/02/06 08:12:07;;;;;;;23.13;18.23;;;;;;;10.01;100.00;100969.41;5011881;28;20404;-67
2022/02/06 08:17:21;;;;;;;36.00;28.95;;;;;;;8.66;100.00;100973.72;5011747;28;20038;-68
2022/02/06 08:19:47;;;;;;;28.63;22.65;;;;;;;9.14;100.00;100937.13;5011606;28;20033;-68
2022/02/06 08:22:12;;;;;;;30.05;22.30;;;;;;;8.99;100.00;100973.59;5011618;28;20038;-68
2022/02/06 08:24:38;;;;;;;35.33;26.98;;;;;;;8.97;100.00;100969.38;4993728;28;20029;-69
2022/02/06 08:27:04;;;;;;;47.35;32.20;;;;;;;9.29;100.00;100950.53;4993836;28;20073;-69
2022/02/06 08:29:29;;;;;;;39.20;27.60;;;;;;;9.48;100.00;100980.03;5011736;28;20034;-69
2022/02/06 08:31:54;;;;;;;31.13;23.25;;;;;;;8.75;100.00;100911.16;5011453;28;20032;-69
2022/02/06 08:34:20;;;;;;;30.48;24.65;;;;;;;8.73;100.00;100986.38;5011218;28;20089;-69
2022/02/06 08:36:45;;;;;;;31.05;24.48;;;;;;;8.49;100.00;100918.06;5011719;28;20516;-68
2022/02/06 08:39:11;;;;;;;39.95;29.08;;;;;;;8.64;100.00;100973.75;4993559;28;20025;-69
2022/02/06 08:41:36;;;;;;;31.60;24.25;;;;;;;9.38;100.00;100980.94;4993799;28;20476;-68
2022/02/06 08:44:03;;;;;;;32.83;25.13;;;;;;;9.42;100.00;100967.38;5011422;28;20029;-69
2022/02/06 08:46:29;;;;;;;38.60;26.35;;;;;;;9.31;100.00;100932.78;4993655;28;20041;-69
2022/02/06 08:48:55;;;;;;;25.70;18.98;;;;;;;8.89;100.00;100941.53;5011117;28;20088;-69
2022/02/06 08:51:21;;;;;;;26.25;21.25;;;;;;;9.77;100.00;100989.94;5011268;28;20034;-70
2022/02/06 08:53:47;;;;;;;25.17;19.25;;;;;;;9.53;100.00;100975.75;4993383;28;20034;-69
2022/02/06 08:56:12;;;;;;;34.38;27.05;;;;;;;9.79;100.00;100950.13;5011187;28;20379;-67
2022/02/06 08:58:38;;;;;;;30.33;18.90;;;;;;;9.95;100.00;100976.22;5011157;28;20407;-67
2022/02/06 09:01:03;;;;;;;28.35;18.15;;;;;;;10.28;100.00;100974.22;4993525;28;20037;-69
2022/02/06 09:03:29;;;;;;;20.92;15.15;;;;;;;10.18;100.00;100964.19;4993271;28;20103;-69
2022/02/06 09:05:54;;;;;;;21.92;15.95;;;;;;;9.98;100.00;100966.88;4993342;28;20064;-69
2022/02/06 09:08:19;;;;;;;19.58;15.07;;;;;;;9.91;100.00;100939.00;5010738;28;20069;-69
2022/02/06 09:10:45;;;;;;;20.65;15.25;;;;;;;9.99;100.00;100968.56;4993306;28;20026;-69
2022/02/06 09:13:11;;;;;;;22.70;13.75;;;;;;;10.23;100.00;100972.59;4993439;28;20038;-69
2022/02/06 09:15:36;;;;;;;17.17;13.82;;;;;;;10.82;100.00;100959.16;4993256;28;20037;-69
2022/02/06 09:18:02;;;;;;;19.73;12.65;;;;;;;10.35;100.00;100907.22;4993075;28;20026;-67
2022/02/06 09:20:32;;;;;;;14.40;10.07;;;;;;;10.87;100.00;100962.50;4993146;28;20030;-69
2022/02/06 09:22:57;;;;;;;15.05;9.38;;;;;;;10.59;89.83;100888.28;5010939;28;20029;-69
2022/02/06 09:25:22;;;;;;;16.80;11.50;;;;;;;11.00;83.19;100921.59;5011034;28;20022;-70
2022/02/06 09:27:48;;;;;;;12.02;8.60;;;;;;;11.03;77.38;100941.91;5010949;28;20185;-69
2022/02/06 09:30:17;;;;;;;20.38;13.80;;;;;;;10.24;100.00;100893.78;5010688;28;20053;-66
2022/02/06 09:35:10;;;;;;;15.13;11.10;;;;;;;10.87;96.59;100909.09;5011860;28;20038;-67
2022/02/06 09:37:36;;;;;;;37.53;22.70;;;;;;;11.42;96.52;100940.47;4996658;28;20033;-66
2022/02/06 09:40:04;;;;;;;7.70;6.38;;;;;;;11.22;83.83;100932.31;5014718;28;20026;-69
2022/02/06 09:42:30;;;;;;;17.10;11.07;;;;;;;11.35;94.68;100904.09;5014660;28;20026;-67
2022/02/06 09:44:57;;;;;;;20.17;12.98;;;;;;;11.34;100.00;100894.78;4996648;28;20026;-66
2022/02/06 09:47:24;;;;;;;70.80;35.58;;;;;;;12.07;86.34;100926.63;5014468;28;20037;-68
2022/02/06 09:49:51;;;;;;;13.23;9.27;;;;;;;11.70;79.62;100921.38;5014425;28;20120;-66
2022/02/06 09:52:22;;;;;;;37.45;18.85;;;;;;;11.33;70.11;100884.59;4996272;28;20046;-69
2022/02/06 09:54:49;;;;;;;12.05;9.05;;;;;;;11.93;67.43;100887.81;5014180;28;20080;-68
2022/02/06 09:57:40;;;;;;;68.50;28.65;;;;;;;12.34;70.03;100908.22;5014117;28;20550;-69
2022/02/06 10:00:07;;;;;;;33.72;15.93;;;;;;;11.70;73.22;100862.78;5014254;28;20033;-68
2022/02/06 10:02:35;;;;;;;24.00;11.50;;;;;;;11.72;73.61;100873.78;5013938;28;20076;-68
2022/02/06 10:05:02;;;;;;;38.13;17.08;;;;;;;11.82;72.24;100907.56;5014121;28;20029;-69
2022/02/06 10:07:37;;;;;;;39.65;18.67;;;;;;;12.01;71.86;100886.81;5014183;28;20088;-69
2022/02/06 10:10:06;;;;;;;46.90;20.88;;;;;;;11.85;77.53;100915.13;5014123;28;20041;-69
2022/02/06 10:12:39;;;;;;;13.57;9.95;;;;;;;11.97;78.83;100892.84;5013913;28;20033;-69
2022/02/06 10:15:07;;;;;;;11.45;8.35;;;;;;;11.69;78.53;100901.00;4996094;28;20116;-68
2022/02/06 10:17:35;;;;;;;11.82;9.43;;;;;;;11.48;87.86;100899.63;4996459;28;20457;-69
2022/02/06 10:20:02;;;;;;;16.85;11.63;;;;;;;12.15;84.39;100896.72;5013866;28;20484;-68
2022/02/06 10:22:41;;;;;;;8.98;6.55;;;;;;;11.60;78.32;100891.78;5013959;28;20026;-68
2022/02/06 10:25:09;;;;;;;15.95;9.50;;;;;;;12.01;68.84;100863.03;4996187;28;20034;-68
2022/02/06 10:27:59;;;;;;;10.23;7.72;;;;;;;12.03;73.90;100857.03;5013776;28;20030;-69
2022/02/06 10:30:42;;;;;;;14.10;10.05;;;;;;;12.35;75.38;100883.56;4996204;28;20062;-68
2022/02/06 10:33:12;;;;;;;12.00;9.40;;;;;;;13.07;70.31;100888.81;4996160;28;20061;-68
2022/02/06 10:35:46;;;;;;;27.38;19.33;;;;;;;12.74;73.58;100858.06;5013403;28;20041;-68
2022/02/06 10:38:21;;;;;;;19.90;13.85;;;;;;;12.91;70.47;100881.47;4995655;28;20121;-68
2022/02/06 10:41:04;;;;;;;26.15;19.05;;;;;;;12.47;67.98;100850.16;4995903;28;20570;-68
2022/02/06 10:43:30;;;;;;;63.00;26.90;;;;;;;12.72;69.62;100836.84;5013269;28;20423;-68
2022/02/06 10:46:25;;;;;;;18.33;11.32;;;;;;;12.97;67.12;100860.09;5012691;28;20030;-68
2022/02/06 10:48:53;;;;;;;10.27;6.32;;;;;;;13.51;63.63;100856.19;4975876;28;20048;-68
2022/02/06 10:51:38;;;;;;;9.38;5.63;;;;;;;13.22;61.75;100816.94;5013134;28;20113;-68
2022/02/06 10:54:08;;;;;;;11.38;6.88;;;;;;;13.35;59.97;100780.00;4995756;28;20048;-69
2022/02/06 10:56:36;;;;;;;16.15;10.27;;;;;;;13.71;60.26;100848.00;4995292;28;20034;-68
2022/02/06 10:59:06;;;;;;;12.07;7.70;;;;;;;13.84;62.83;100852.72;4995354;28;20030;-68
2022/02/06 11:01:35;;;;;;;9.82;6.68;;;;;;;13.67;66.08;100834.47;4995338;28;20061;-68
2022/02/06 11:04:26;;;;;;;13.68;8.88;;;;;;;13.58;64.22;100833.88;4995343;28;20131;-68
2022/02/06 11:07:06;;;;;;;10.73;6.00;;;;;;;13.26;62.86;100846.63;5012853;28;20046;-68
2022/02/06 11:09:31;;;;;;;12.13;8.25;;;;;;;13.45;65.69;100824.88;5012862;28;20022;-69
2022/02/06 11:11:58;;;;;;;7.45;4.68;;;;;;;13.56;59.85;100815.19;5012995;28;20117;-68
2022/02/06 11:14:25;;;;;;;13.77;8.75;;;;;;;13.12;60.78;100765.28;4995336;28;20417;-69
2022/02/06 11:16:51;;;;;;;14.43;9.63;;;;;;;13.21;61.55;100800.78;4995381;28;20036;-68
2022/02/06 11:19:17;;;;;;;11.60;6.10;;;;;;;13.23;59.45;100793.09;5012927;28;20046;-68
2022/02/06 11:21:43;;;;;;;7.30;4.30;;;;;;;13.45;56.14;100766.13;5012750;28;20460;-68
2022/02/06 11:24:18;;;;;;;12.73;7.22;;;;;;;14.07;54.28;100829.09;4995109;28;20028;-68
2022/02/06 11:26:44;;;;;;;7.82;5.95;;;;;;;13.47;57.89;100780.50;5012731;28;20029;-68
2022/02/06 11:29:10;;;;;;;7.15;5.03;;;;;;;13.47;56.08;100780.50;5012900;28;20038;-67
2022/02/06 11:31:36;;;;;;;7.53;5.25;;;;;;;13.72;54.86;100817.31;4994740;28;20042;-68
2022/02/06 11:34:01;;;;;;;7.40;4.90;;;;;;;13.69;55.82;100809.72;5012527;28;20191;-68
2022/02/06 11:45:21;;;;;;;12.45;6.25;;;;;;;14.22;55.97;100749.34;5012382;28;20048;-68
2022/02/06 11:47:55;;;;;;;9.27;6.20;;;;;;;14.42;58.32;100774.38;5012167;28;20544;-68
2022/02/06 11:50:22;;;;;;;10.45;6.97;;;;;;;13.69;60.39;100783.31;4994455;28;20033;-69
2022/02/06 11:52:50;;;;;;;7.70;5.32;;;;;;;14.47;57.95;100783.59;4994544;28;20029;-68
2022/02/06 11:55:37;;;;;;;9.88;7.00;;;;;;;13.86;57.24;100730.84;4994226;28;20041;-69
2022/02/06 11:58:25;;;;;;;12.07;7.95;;;;;;;14.83;58.47;100775.63;4994091;28;20038;-68
2022/02/06 12:01:05;;;;;;;14.90;8.43;;;;;;;15.06;56.94;100763.72;4994204;28;20416;-69
2022/02/06 12:04:01;;;;;;;19.95;9.32;;;;;;;14.04;60.36;100692.84;5011980;28;20058;-68
2022/02/06 12:06:39;;;;;;;11.30;5.25;;;;;;;14.15;57.44;100759.81;5011988;28;20033;-68
2022/02/06 12:09:04;;;;;;;10.73;6.15;;;;;;;14.50;57.07;100751.94;4994210;28;20041;-68
2022/02/06 12:11:34;;;;;;;10.63;5.07;;;;;;;14.53;52.42;100756.97;5011808;28;20428;-68
2022/02/06 12:14:13;;;;;;;27.10;18.10;;;;;;;14.32;51.66;100755.09;5011563;28;20419;-68
2022/02/06 12:16:51;;;;;;;11.10;7.60;;;;;;;14.32;52.64;100755.09;5011522;28;20044;-68
2022/02/06 12:19:34;;;;;;;52.80;35.53;;;;;;;13.85;52.40;100702.75;4994066;28;20034;-69
2022/02/06 12:22:28;;;;;;;12.35;6.97;;;;;;;14.72;52.18;100738.41;4994383;28;20120;-69
2022/02/06 12:25:19;;;;;;;10.45;6.50;;;;;;;15.24;53.53;100734.94;5011773;28;20026;-69
2022/02/06 12:27:48;;;;;;;9.60;5.80;;;;;;;14.44;54.31;100729.94;4994069;28;20030;-69
2022/02/06 12:30:24;;;;;;;10.18;7.00;;;;;;;14.98;54.55;100722.16;4994052;28;20034;-69
2022/02/06 12:32:50;;;;;;;11.23;6.22;;;;;;;16.08;52.19;100717.31;5011424;28;20034;-69
2022/02/06 12:38:17;;;;;;;8.02;5.15;;;;;;;14.36;52.80;100682.47;4995762;28;20122;-69
2022/02/06 12:40:42;;;;;;;18.17;12.32;;;;;;;14.47;52.99;100699.16;4993642;28;20046;-70
2022/02/06 12:43:07;;;;;;;9.43;5.60;;;;;;;14.78;52.68;100702.38;5011035;28;20033;-69
2022/02/06 12:45:33;;;;;;;14.60;7.78;;;;;;;14.89;53.69;100676.41;4993856;28;20741;-70
2022/02/06 12:48:06;;;;;;;13.43;7.30;;;;;;;14.86;53.12;100703.81;5011467;28;20039;-69
2022/02/06 12:50:35;;;;;;;7.45;5.18;;;;;;;15.87;50.58;100697.59;5011116;28;20041;-69
2022/02/06 12:53:05;;;;;;;12.43;8.38;;;;;;;14.39;52.18;100638.88;4993502;28;20117;-69
2022/02/06 12:55:32;;;;;;;12.90;8.68;;;;;;;14.77;51.62;100657.19;5011162;28;20037;-68
2022/02/06 12:57:58;;;;;;;16.65;10.75;;;;;;;14.53;52.65;100682.75;5011239;28;20042;-69
2022/02/06 13:00:42;;;;;;;10.23;6.13;;;;;;;16.25;49.73;100681.56;5011258;28;20096;-70
2022/02/06 13:03:37;;;;;;;10.13;5.53;;;;;;;15.91;52.35;100682.06;5011118;28;20425;-69
2022/02/06 13:06:09;;;;;;;14.00;10.50;;;;;;;16.05;51.92;100684.91;5008386;28;20520;-70
2022/02/06 13:08:38;;;;;;;13.05;9.07;;;;;;;15.44;53.17;100680.44;5010993;28;20028;-69
2022/02/06 13:11:15;;;;;;;11.77;9.57;;;;;;;15.91;51.14;100681.22;5010528;28;20084;-69
2022/02/06 13:14:47;;;;;;;12.50;9.35;;;;;;;14.86;55.69;100614.22;4993385;28;20121;-69
2022/02/06 13:25:11;;;;;;;10.50;8.60;;;;;;;15.72;57.10;100663.16;5010939;28;20041;-71
2022/02/06 13:27:40;;;;;;;10.07;8.48;;;;;;;15.77;56.41;100679.19;5008648;28;20091;-71
2022/02/06 13:30:28;;;;;;;11.07;8.75;;;;;;;15.49;58.70;100656.31;4993090;28;20056;-70
2022/02/06 13:33:04;;;;;;;11.38;9.43;;;;;;;15.84;60.73;100615.69;4993089;28;20030;-70
2022/02/06 13:35:45;;;;;;;13.63;11.13;;;;;;;15.57;64.13;100659.41;4993024;28;20115;-69
2022/02/06 13:38:17;;;;;;;21.52;16.58;;;;;;;16.43;58.67;100624.38;5010381;28;20412;-69
2022/02/06 13:40:50;;;;;;;17.10;13.35;;;;;;;18.47;53.32;100628.69;5010717;28;20088;-69
2022/02/06 13:43:23;;;;;;;18.50;11.95;;;;;;;17.55;58.32;100637.47;5010462;28;20121;-68
2022/02/06 13:45:51;;;;;;;16.73;14.55;;;;;;;18.93;51.54;100622.06;5010273;28;20467;-69
2022/02/06 13:48:19;;;;;;;17.48;12.15;;;;;;;18.91;49.46;100619.56;4992044;28;20026;-69
2022/02/06 13:50:54;;;;;;;18.70;14.18;;;;;;;19.14;48.42;100620.91;5010200;28;20044;-67
2022/02/06 13:53:23;;;;;;;36.35;24.38;;;;;;;18.29;49.49;100590.13;4992581;28;20030;-68
2022/02/06 13:55:56;;;;;;;28.92;20.83;;;;;;;17.92;47.77;100596.25;5000407;28;20029;-68
2022/02/06 13:58:26;;;;;;;21.08;16.85;;;;;;;17.83;50.34;100630.13;5028454;28;20412;-68
2022/02/06 14:01:12;;;;;;;15.13;12.30;;;;;;;18.19;50.03;100624.03;4992063;28;20129;-68
2022/02/06 14:03:48;;;;;;;18.08;15.32;;;;;;;18.89;48.86;100623.97;5010018;28;20050;-67